createdAt,value
2018-09-28T00:00:23.333Z,13.54
2018-09-28T00:01:25.117Z,13.54
2018-09-28T00:02:25.455Z,13.55
2018-09-28T00:03:25.792Z,13.55
2018-09-28T00:04:26.571Z,13.6
2018-09-28T00:05:27.353Z,13.55
2018-09-28T00:06:27.854Z,13.57
2018-09-28T00:07:29.469Z,13.62
2018-09-28T00:08:29.971Z,13.61
2018-09-28T00:09:31.310Z,13.57
2018-09-28T00:10:31.924Z,13.54
2018-09-28T00:11:32.502Z,13.57
2018-09-28T00:12:33.005Z,13.62
2018-09-28T00:13:33.787Z,13.6
2018-09-28T00:14:34.294Z,13.64
2018-09-28T00:15:35.352Z,13.55
2018-09-28T00:16:36.413Z,13.52
2018-09-28T00:17:36.471Z,13.54
2018-09-28T00:18:37.257Z,13.43
2018-09-28T00:19:38.042Z,13.36
2018-09-28T00:20:38.822Z,13.26
2018-09-28T00:21:40.052Z,13.28
2018-09-28T00:22:41.113Z,13.24
2018-09-28T00:23:41.620Z,13.33
2018-09-28T00:24:42.400Z,13.4
2018-09-28T00:25:43.182Z,13.28
2018-09-28T00:26:44.241Z,13.27
2018-09-28T00:27:45.300Z,13.23
2018-09-28T00:28:46.080Z,13.37
2018-09-28T00:29:46.589Z,13.24
2018-09-28T00:30:46.925Z,13.27
2018-09-28T00:31:48.151Z,13.19
2018-09-28T00:32:48.769Z,13.37
2018-09-28T00:33:49.547Z,13.28
2018-09-28T00:34:50.054Z,13.26
2018-09-28T00:35:51.755Z,13.37
2018-09-28T00:36:51.534Z,13.24
2018-09-28T00:37:52.595Z,13.28
2018-09-28T00:38:53.929Z,13.28
2018-09-28T00:39:54.986Z,13.3
2018-09-28T00:40:56.045Z,13.33
2018-09-28T00:41:56.301Z,13.33
2018-09-28T00:42:56.638Z,13.4
2018-09-28T00:43:57.421Z,13.24
2018-09-28T00:44:58.760Z,13.39
2018-09-28T00:45:59.095Z,13.23
2018-09-28T00:46:59.873Z,13.33
2018-09-28T00:48:01.488Z,13.36
2018-09-28T00:49:01.271Z,13.27
2018-09-28T00:50:02.385Z,13.24
2018-09-28T00:51:02.840Z,13.19
2018-09-28T00:52:03.354Z,13.13
2018-09-28T00:53:03.858Z,13.19
2018-09-28T00:54:04.919Z,13.17
2018-09-28T00:55:05.257Z,13.06
2018-09-28T00:56:05.317Z,13.13
2018-09-28T00:57:05.819Z,13.13
2018-09-28T00:58:07.607Z,13.11
2018-09-28T00:59:08.217Z,13.09
2018-09-28T01:00:09.001Z,13.08
2018-09-28T01:01:10.059Z,13.19
2018-09-28T01:02:11.018Z,13.13
2018-09-28T01:03:11.356Z,13.16
2018-09-28T01:04:11.581Z,13.09
2018-09-28T01:05:12.361Z,13.17
2018-09-28T01:06:13.416Z,13.17
2018-09-28T01:07:13.919Z,13.13
2018-09-28T01:08:14.423Z,13.05
2018-09-28T01:09:16.484Z,13.02
2018-09-28T01:10:16.990Z,12.98
2018-09-28T01:11:17.217Z,13.02
2018-09-28T01:12:18.042Z,13.02
2018-09-28T01:13:18.831Z,13.02
2018-09-28T01:14:19.450Z,12.99
2018-09-28T01:15:20.504Z,13.03
2018-09-28T01:16:21.288Z,12.98
2018-09-28T01:17:22.348Z,13.01
2018-09-28T01:18:23.129Z,12.99
2018-09-28T01:19:24.195Z,12.93
2018-09-28T01:20:24.976Z,12.9
2018-09-28T01:21:26.478Z,13.02
2018-09-28T01:22:27.540Z,12.91
2018-09-28T01:23:28.156Z,12.99
2018-09-28T01:24:28.385Z,12.93
2018-09-28T01:25:29.716Z,12.93
2018-09-28T01:26:29.944Z,13.03
2018-09-28T01:27:31.446Z,12.95
2018-09-28T01:28:31.953Z,12.87
2018-09-28T01:29:33.458Z,12.8
2018-09-28T01:30:34.242Z,12.83
2018-09-28T01:31:34.744Z,12.76
2018-09-28T01:32:35.421Z,12.86
2018-09-28T01:33:36.655Z,12.8
2018-09-28T01:34:38.263Z,12.8
2018-09-28T01:35:39.602Z,12.87
2018-09-28T01:36:39.386Z,12.83
2018-09-28T01:37:40.168Z,12.8
2018-09-28T01:38:40.671Z,12.83
2018-09-28T01:39:41.732Z,12.83
2018-09-28T01:40:42.791Z,12.75
2018-09-28T01:41:43.296Z,12.78
2018-09-28T01:42:44.272Z,12.72
2018-09-28T01:43:45.053Z,12.68
2018-09-28T01:44:45.114Z,12.66
2018-09-28T01:45:45.891Z,12.68
2018-09-28T01:46:46.397Z,12.83
2018-09-28T01:47:47.029Z,12.76
2018-09-28T01:48:47.534Z,12.81
2018-09-28T01:49:48.593Z,12.93
2018-09-28T01:50:49.376Z,12.95
2018-09-28T01:51:50.158Z,13.01
2018-09-28T01:52:50.838Z,13.01
2018-09-28T01:53:51.897Z,13.05
2018-09-28T01:54:52.680Z,13.02
2018-09-28T01:55:53.740Z,13.08
2018-09-28T01:56:54.520Z,13.16
2018-09-28T01:57:55.575Z,13.01
2018-09-28T01:58:56.633Z,13.05
2018-09-28T01:59:57.529Z,13.03
2018-09-28T02:00:57.310Z,13.03
2018-09-28T02:01:58.813Z,13.05
2018-09-28T02:03:00.319Z,13.05
2018-09-28T02:04:00.830Z,13.06
2018-09-28T02:05:01.913Z,13.09
2018-09-28T02:06:02.985Z,13.06
2018-09-28T02:07:04.045Z,13.11
2018-09-28T02:08:04.551Z,13.11
2018-09-28T02:09:05.610Z,13.19
2018-09-28T02:10:06.394Z,13.21
2018-09-28T02:11:07.744Z,13.13
2018-09-28T02:12:08.522Z,13.2
2018-09-28T02:13:09.381Z,13.16
2018-09-28T02:14:10.164Z,13.19
2018-09-28T02:15:10.959Z,13.12
2018-09-28T02:16:11.300Z,13.06
2018-09-28T02:17:12.355Z,13.09
2018-09-28T02:18:12.863Z,13.01
2018-09-28T02:19:13.652Z,12.98
2018-09-28T02:20:14.442Z,13.01
2018-09-28T02:21:16.085Z,13.02
2018-09-28T02:22:16.121Z,13.02
2018-09-28T02:23:17.073Z,13.06
2018-09-28T02:24:18.131Z,13.05
2018-09-28T02:25:18.923Z,13.09
2018-09-28T02:26:19.705Z,13.11
2018-09-28T02:27:20.485Z,13.16
2018-09-28T02:28:20.989Z,13.08
2018-09-28T02:29:22.046Z,13.2
2018-09-28T02:30:23.432Z,13.16
2018-09-28T02:31:24.893Z,13.19
2018-09-28T02:32:25.396Z,13.19
2018-09-28T02:33:26.180Z,13.11
2018-09-28T02:34:26.962Z,13.11
2018-09-28T02:35:28.852Z,13.13
2018-09-28T02:36:28.957Z,13.21
2018-09-28T02:37:30.021Z,13.19
2018-09-28T02:38:30.804Z,13.11
2018-09-28T02:39:32.585Z,13.11
2018-09-28T02:40:33.473Z,13.21
2018-09-28T02:41:34.373Z,13.11
2018-09-28T02:42:34.872Z,13.09
2018-09-28T02:43:35.937Z,13.01
2018-09-28T02:44:37.013Z,13.03
2018-09-28T02:45:37.630Z,13.01
2018-09-28T02:46:37.966Z,13.02
2018-09-28T02:47:40.143Z,13.08
2018-09-28T02:48:40.211Z,13.05
2018-09-28T02:49:40.547Z,13.13
2018-09-28T02:50:40.615Z,13.02
2018-09-28T02:51:41.549Z,12.9
2018-09-28T02:52:42.314Z,12.81
2018-09-28T02:53:42.869Z,12.83
2018-09-28T02:54:44.504Z,12.78
2018-09-28T02:55:45.563Z,12.8
2018-09-28T02:56:46.876Z,12.8
2018-09-28T02:57:47.578Z,12.84
2018-09-28T02:58:49.195Z,12.78
2018-09-28T02:59:49.260Z,12.9
2018-09-28T03:00:49.321Z,12.81
2018-09-28T03:01:49.662Z,12.87
2018-09-28T03:02:50.723Z,12.83
2018-09-28T03:03:51.533Z,12.8
2018-09-28T03:04:52.035Z,12.91
2018-09-28T03:05:53.095Z,12.78
2018-09-28T03:06:55.164Z,12.76
2018-09-28T03:07:55.221Z,12.76
2018-09-28T03:08:56.831Z,12.8
2018-09-28T03:09:57.169Z,12.76
2018-09-28T03:10:57.783Z,12.66
2018-09-28T03:11:58.686Z,12.61
2018-09-28T03:13:00.027Z,12.48
2018-09-28T03:14:00.513Z,12.51
2018-09-28T03:15:01.293Z,12.53
2018-09-28T03:16:02.947Z,12.62
2018-09-28T03:17:03.300Z,12.55
2018-09-28T03:18:04.475Z,12.69
2018-09-28T03:19:05.113Z,12.63
2018-09-28T03:20:06.178Z,12.66
2018-09-28T03:21:06.687Z,12.69
2018-09-28T03:22:07.868Z,12.65
2018-09-28T03:23:08.198Z,12.75
2018-09-28T03:24:08.740Z,12.81
2018-09-28T03:25:09.799Z,12.84
2018-09-28T03:26:11.415Z,12.81
2018-09-28T03:27:12.029Z,12.81
2018-09-28T03:28:13.093Z,12.84
2018-09-28T03:29:14.198Z,12.81
2018-09-28T03:30:16.090Z,12.78
2018-09-28T03:31:16.152Z,12.88
2018-09-28T03:32:16.766Z,12.9
2018-09-28T03:33:17.834Z,12.87
2018-09-28T03:34:18.376Z,12.87
2018-09-28T03:35:19.434Z,12.87
2018-09-28T03:36:20.223Z,12.62
2018-09-28T03:37:21.153Z,12.8
2018-09-28T03:38:21.491Z,12.78
2018-09-28T03:39:22.884Z,12.65
2018-09-28T03:40:22.988Z,12.7
2018-09-28T03:41:24.976Z,12.75
2018-09-28T03:42:25.307Z,12.7
2018-09-28T03:43:26.361Z,12.69
2018-09-28T03:44:27.313Z,12.63
2018-09-28T03:45:28.370Z,12.69
2018-09-28T03:46:29.426Z,12.65
2018-09-28T03:47:30.769Z,12.7
2018-09-28T03:48:31.939Z,12.61
2018-09-28T03:49:32.447Z,12.65
2018-09-28T03:50:33.231Z,12.65
2018-09-28T03:51:34.571Z,12.54
2018-09-28T03:52:35.186Z,12.55
2018-09-28T03:53:34.968Z,12.55
2018-09-28T03:54:36.886Z,12.5
2018-09-28T03:55:36.780Z,12.51
2018-09-28T03:56:37.284Z,12.53
2018-09-28T03:57:37.619Z,12.54
2018-09-28T03:58:38.963Z,12.54
2018-09-28T03:59:39.297Z,12.51
2018-09-28T04:00:40.631Z,12.47
2018-09-28T04:01:41.692Z,12.5
2018-09-28T04:02:43.181Z,12.5
2018-09-28T04:03:42.968Z,12.44
2018-09-28T04:04:44.500Z,12.36
2018-09-28T04:05:45.282Z,12.33
2018-09-28T04:06:46.338Z,12.36
2018-09-28T04:07:46.957Z,12.35
2018-09-28T04:08:48.059Z,12.43
2018-09-28T04:09:48.671Z,12.36
2018-09-28T04:10:49.021Z,12.37
2018-09-28T04:11:49.935Z,12.29
2018-09-28T04:12:50.585Z,12.1
2018-09-28T04:13:51.371Z,12.17
2018-09-28T04:14:51.759Z,12.17
2018-09-28T04:15:52.171Z,12.1
2018-09-28T04:16:53.513Z,12.2
2018-09-28T04:17:54.296Z,12.21
2018-09-28T04:18:55.635Z,12.02
2018-09-28T04:19:56.523Z,12.08
2018-09-28T04:20:58.146Z,12.11
2018-09-28T04:21:58.441Z,12.05
2018-09-28T04:22:58.639Z,12.17
2018-09-28T04:23:59.252Z,12.05
2018-09-28T04:24:59.917Z,12.11
2018-09-28T04:26:00.819Z,12.08
2018-09-28T04:27:00.882Z,12.08
2018-09-28T04:28:02.498Z,12.05
2018-09-28T04:29:03.276Z,12
2018-09-28T04:30:04.622Z,12.1
2018-09-28T04:31:04.956Z,12.08
2018-09-28T04:32:06.013Z,12.03
2018-09-28T04:33:06.525Z,12.03
2018-09-28T04:34:07.309Z,11.89
2018-09-28T04:34:51.577Z,12.02
2018-09-28T04:35:53.106Z,11.99
2018-09-28T04:36:53.612Z,11.95
2018-09-28T04:37:54.110Z,11.93
2018-09-28T04:38:54.338Z,11.95
2018-09-28T04:39:55.144Z,11.88
2018-09-28T04:40:55.926Z,11.93
2018-09-28T04:41:56.983Z,11.95
2018-09-28T04:42:58.060Z,11.93
2018-09-28T04:43:59.560Z,11.93
2018-09-28T04:45:00.110Z,11.93
2018-09-28T04:46:00.738Z,11.95
2018-09-28T04:47:01.793Z,11.88
2018-09-28T04:48:02.851Z,11.86
2018-09-28T04:49:03.353Z,11.93
2018-09-28T04:50:04.410Z,11.89
2018-09-28T04:51:05.192Z,11.93
2018-09-28T04:52:05.971Z,11.86
2018-09-28T04:53:06.754Z,11.86
2018-09-28T04:54:07.257Z,11.88
2018-09-28T04:55:08.039Z,11.83
2018-09-28T04:56:09.401Z,11.8
2018-09-28T04:57:10.294Z,11.78
2018-09-28T04:58:10.910Z,11.8
2018-09-28T04:59:11.145Z,11.71
2018-09-28T05:00:12.761Z,11.74
2018-09-28T05:01:12.987Z,11.78
2018-09-28T05:02:13.493Z,11.76
2018-09-28T05:03:13.998Z,11.78
2018-09-28T05:04:15.056Z,11.83
2018-09-28T05:05:16.121Z,11.81
2018-09-28T05:06:16.374Z,11.83
2018-09-28T05:07:17.601Z,11.78
2018-09-28T05:08:19.389Z,11.77
2018-09-28T05:09:19.893Z,11.55
2018-09-28T05:10:20.954Z,11.67
2018-09-28T05:11:21.738Z,11.67
2018-09-28T05:12:22.795Z,11.56
2018-09-28T05:13:22.856Z,11.59
2018-09-28T05:14:23.363Z,11.41
2018-09-28T05:15:24.453Z,11.44
2018-09-28T05:16:25.125Z,11.43
2018-09-28T05:17:26.463Z,11.51
2018-09-28T05:18:27.271Z,11.37
2018-09-28T05:19:29.280Z,11.3
2018-09-28T05:20:30.263Z,11.37
2018-09-28T05:21:31.046Z,11.45
2018-09-28T05:22:32.382Z,11.51
2018-09-28T05:23:32.440Z,11.56
2018-09-28T05:24:33.504Z,11.6
2018-09-28T05:25:34.400Z,11.59
2018-09-28T05:26:34.643Z,11.55
2018-09-28T05:27:35.430Z,11.6
2018-09-28T05:28:36.492Z,11.62
2018-09-28T05:29:36.835Z,11.58
2018-09-28T05:30:55.803Z,11.59
2018-09-28T05:31:03.455Z,11.65
2018-09-28T05:32:03.893Z,11.55
2018-09-28T05:33:04.965Z,11.68
2018-09-28T05:34:04.766Z,11.63
2018-09-28T05:35:05.828Z,11.71
2018-09-28T05:36:06.334Z,11.74
2018-09-28T05:37:08.106Z,11.81
2018-09-28T05:38:08.136Z,11.91
2018-09-28T05:39:09.205Z,11.93
2018-09-28T05:40:09.265Z,11.93
2018-09-28T05:41:11.324Z,12
2018-09-28T05:42:12.108Z,12.02
2018-09-28T05:43:12.891Z,11.97
2018-09-28T05:44:13.398Z,12.07
2018-09-28T05:45:14.186Z,12.08
2018-09-28T05:46:15.508Z,12.08
2018-09-28T05:47:15.354Z,12.2
2018-09-28T05:48:16.135Z,12.47
2018-09-28T05:49:17.201Z,12.9
2018-09-28T05:50:18.265Z,13.28
2018-09-28T05:51:19.049Z,13.47
2018-09-28T05:52:18.727Z,13.68
2018-09-28T05:53:19.797Z,13.89
2018-09-28T05:54:20.306Z,14.03
2018-09-28T05:55:20.818Z,14.11
2018-09-28T05:56:21.607Z,13.95
2018-09-28T05:57:22.948Z,13.75
2018-09-28T05:58:24.128Z,14.01
2018-09-28T05:59:24.284Z,14.13
2018-09-28T06:00:25.069Z,14.37
2018-09-28T06:01:25.859Z,14.4
2018-09-28T06:02:27.376Z,14.55
2018-09-28T06:03:28.445Z,14.68
2018-09-28T06:04:29.236Z,14.67
2018-09-28T06:05:29.668Z,14.77
2018-09-28T06:06:30.640Z,15.04
2018-09-28T06:07:31.547Z,14.93
2018-09-28T06:08:31.347Z,14.61
2018-09-28T06:09:34.696Z,14.43
2018-09-28T06:10:34.110Z,14.51
2018-09-28T06:11:34.225Z,14.44
2018-09-28T06:12:35.457Z,14.36
2018-09-28T06:13:36.620Z,14.2
2018-09-28T06:14:36.856Z,13.95
2018-09-28T06:15:38.511Z,14.04
2018-09-28T06:16:38.845Z,14.05
2018-09-28T06:17:39.635Z,13.8
2018-09-28T06:18:41.260Z,13.71
2018-09-28T06:19:41.991Z,13.58
2018-09-28T06:20:42.544Z,13.46
2018-09-28T06:21:43.657Z,13.43
2018-09-28T06:22:45.167Z,13.4
2018-09-28T06:23:45.663Z,13.26
2018-09-28T06:24:46.732Z,13.28
2018-09-28T06:25:48.229Z,13.21
2018-09-28T06:26:48.685Z,13.21
2018-09-28T06:27:49.915Z,13.05
2018-09-28T06:28:50.426Z,13.06
2018-09-28T06:29:51.634Z,13.08
2018-09-28T06:30:52.215Z,13.12
2018-09-28T06:31:53.019Z,12.95
2018-09-28T06:32:53.255Z,12.99
2018-09-28T06:33:53.765Z,13.02
2018-09-28T06:34:55.106Z,13.08
2018-09-28T06:35:56.844Z,13.09
2018-09-28T06:36:56.519Z,13.12
2018-09-28T06:37:57.302Z,13.08
2018-09-28T06:38:58.087Z,13.16
2018-09-28T06:39:59.316Z,13.11
2018-09-28T06:40:59.657Z,13.2
2018-09-28T06:42:02.211Z,13.4
2018-09-28T06:43:01.622Z,13.82
2018-09-28T06:44:01.961Z,14.33
2018-09-28T06:45:03.323Z,14.68
2018-09-28T06:46:03.830Z,15.04
2018-09-28T06:47:04.624Z,15.05
2018-09-28T06:48:05.746Z,15.12
2018-09-28T06:49:07.154Z,15.3
2018-09-28T06:50:07.225Z,15.44
2018-09-28T06:51:09.005Z,15.5
2018-09-28T06:52:09.427Z,15.62
2018-09-28T06:53:10.386Z,15.65
2018-09-28T06:54:11.717Z,15.66
2018-09-28T06:55:12.590Z,15.8
2018-09-28T06:56:13.938Z,15.81
2018-09-28T06:57:13.727Z,15.84
2018-09-28T06:58:14.994Z,15.87
2018-09-28T06:59:16.061Z,15.92
2018-09-28T07:00:17.028Z,15.98
2018-09-28T07:01:16.973Z,16.17
2018-09-28T07:02:17.487Z,16.02
2018-09-28T07:03:18.729Z,16.18
2018-09-28T07:04:19.535Z,16.26
2018-09-28T07:05:20.051Z,16.31
2018-09-28T07:06:22.299Z,16.43
2018-09-28T07:07:21.593Z,16.49
2018-09-28T07:08:22.669Z,16.64
2018-09-28T07:09:24.362Z,16.69
2018-09-28T07:10:24.537Z,16.74
2018-09-28T07:11:25.161Z,16.83
2018-09-28T07:12:25.974Z,17.24
2018-09-28T07:13:28.039Z,17.38
2018-09-28T07:14:28.832Z,17.75
2018-09-28T07:15:30.068Z,18.08
2018-09-28T07:16:31.555Z,18.21
2018-09-28T07:17:32.310Z,18.49
2018-09-28T07:18:32.823Z,18.61
2018-09-28T07:19:33.337Z,18.67
2018-09-28T07:20:35.127Z,18.76
2018-09-28T07:21:35.917Z,18.73
2018-09-28T07:22:36.544Z,18.49
2018-09-28T07:23:37.646Z,18.42
2018-09-28T07:24:39.223Z,18.46
2018-09-28T07:25:40.083Z,18.36
2018-09-28T07:26:40.929Z,18.57
2018-09-28T07:27:41.721Z,18.58
2018-09-28T07:28:41.790Z,18.71
2018-09-28T07:29:42.683Z,18.74
2018-09-28T07:30:43.470Z,18.78
2018-09-28T07:31:44.262Z,18.78
2018-09-28T07:32:44.774Z,18.74
2018-09-28T07:33:45.471Z,18.57
2018-09-28T07:34:46.989Z,18.51
2018-09-28T07:35:47.974Z,18.46
2018-09-28T07:36:50.975Z,18.23
2018-09-28T07:37:51.091Z,18.15
2018-09-28T07:38:52.226Z,18.21
2018-09-28T07:39:53.019Z,18.21
2018-09-28T07:40:53.533Z,18.16
2018-09-28T07:41:55.759Z,18.12
2018-09-28T07:42:55.756Z,18.03
2018-09-28T07:43:56.868Z,18.03
2018-09-28T07:44:57.380Z,17.78
2018-09-28T07:45:57.892Z,17.79
2018-09-28T07:46:59.684Z,17.79
2018-09-28T07:48:01.520Z,17.72
2018-09-28T07:49:01.341Z,17.75
2018-09-28T07:50:02.760Z,17.78
2018-09-28T07:51:03.830Z,17.72
2018-09-28T07:52:04.067Z,17.72
2018-09-28T07:53:04.860Z,17.75
2018-09-28T07:54:07.082Z,17.76
2018-09-28T07:55:07.049Z,17.72
2018-09-28T07:56:08.114Z,17.6
2018-09-28T07:57:08.624Z,17.73
2018-09-28T07:58:09.866Z,17.75
2018-09-28T07:59:10.206Z,17.78
2018-09-28T08:00:10.983Z,17.75
2018-09-28T08:01:11.712Z,17.63
2018-09-28T08:02:12.081Z,17.72
2018-09-28T08:03:12.600Z,17.69
2018-09-28T08:04:13.297Z,17.65
2018-09-28T08:05:17.279Z,17.75
2018-09-28T08:05:26.365Z,17.75
2018-09-28T08:06:27.050Z,17.76
2018-09-28T08:07:27.843Z,17.76
2018-09-28T08:08:28.190Z,17.57
2018-09-28T08:09:29.270Z,17.72
2018-09-28T08:10:30.475Z,17.8
2018-09-28T08:11:30.962Z,17.87
2018-09-28T08:12:31.314Z,17.91
2018-09-28T08:13:32.522Z,17.88
2018-09-28T08:14:32.035Z,17.86
2018-09-28T08:15:33.099Z,17.87
2018-09-28T08:16:34.197Z,17.88
2018-09-28T08:17:35.013Z,17.94
2018-09-28T08:18:35.801Z,17.98
2018-09-28T08:19:36.439Z,17.93
2018-09-28T08:20:36.940Z,17.98
2018-09-28T08:21:38.320Z,18.03
2018-09-28T08:22:38.554Z,18.03
2018-09-28T08:23:39.345Z,17.95
2018-09-28T08:24:40.223Z,18.06
2018-09-28T08:25:40.749Z,18.18
2018-09-28T08:26:41.713Z,18.12
2018-09-28T08:27:42.796Z,18.21
2018-09-28T08:28:43.311Z,18.19
2018-09-28T08:29:44.388Z,18.27
2018-09-28T08:30:45.179Z,18.42
2018-09-28T08:31:45.967Z,18.26
2018-09-28T08:32:46.593Z,18.42
2018-09-28T08:33:47.106Z,18.51
2018-09-28T08:34:47.893Z,18.49
2018-09-28T08:35:48.127Z,18.45
2018-09-28T08:36:49.710Z,18.45
2018-09-28T08:37:50.766Z,18.55
2018-09-28T08:38:51.555Z,18.58
2018-09-28T08:39:52.878Z,18.66
2018-09-28T08:40:53.507Z,18.78
2018-09-28T08:41:54.490Z,18.73
2018-09-28T08:42:55.262Z,18.88
2018-09-28T08:43:57.148Z,19.01
2018-09-28T08:44:57.691Z,19.04
2018-09-28T08:45:58.936Z,19.11
2018-09-28T08:46:59.239Z,19.11
2018-09-28T08:48:00.307Z,19.23
2018-09-28T08:49:00.282Z,19.11
2018-09-28T08:50:01.374Z,19.22
2018-09-28T08:51:01.892Z,19.48
2018-09-28T08:52:03.406Z,19.47
2018-09-28T08:53:03.917Z,19.55
2018-09-28T08:54:03.988Z,19.44
2018-09-28T08:55:08.694Z,19.59
2018-09-28T08:55:19.804Z,19.6
2018-09-28T08:56:18.849Z,19.66
2018-09-28T08:57:19.834Z,19.63
2018-09-28T08:58:19.910Z,19.78
2018-09-28T08:59:21.532Z,19.72
2018-09-28T09:00:22.319Z,19.85
2018-09-28T09:01:23.699Z,19.85
2018-09-28T09:02:24.598Z,19.81
2018-09-28T09:03:24.424Z,19.89
2018-09-28T09:04:25.282Z,19.96
2018-09-28T09:05:25.791Z,19.89
2018-09-28T09:06:26.438Z,19.87
2018-09-28T09:07:26.787Z,19.81
2018-09-28T09:08:27.301Z,19.92
2018-09-28T09:09:28.374Z,19.9
2018-09-28T09:10:29.563Z,19.97
2018-09-28T09:11:29.869Z,20.02
2018-09-28T09:12:31.103Z,20.07
2018-09-28T09:13:32.179Z,20.04
2018-09-28T09:14:33.521Z,20.1
2018-09-28T09:15:34.594Z,20.08
2018-09-28T09:16:35.666Z,20.03
2018-09-28T09:17:36.727Z,19.97
2018-09-28T09:18:37.799Z,20
2018-09-28T09:19:38.428Z,19.87
2018-09-28T09:20:39.779Z,19.85
2018-09-28T09:21:40.400Z,20.03
2018-09-28T09:22:41.191Z,20.12
2018-09-28T09:23:41.980Z,20.18
2018-09-28T09:24:42.050Z,20.22
2018-09-28T09:25:43.841Z,20.21
2018-09-28T09:26:43.826Z,20.29
2018-09-28T09:27:44.618Z,20.27
2018-09-28T09:28:45.971Z,20.36
2018-09-28T09:29:47.759Z,20.48
2018-09-28T09:30:48.562Z,20.52
2018-09-28T09:31:49.084Z,20.66
2018-09-28T09:32:50.320Z,20.6
2018-09-28T09:33:50.832Z,20.8
2018-09-28T09:34:52.624Z,20.92
2018-09-28T09:35:53.696Z,20.89
2018-09-28T09:36:55.168Z,20.92
2018-09-28T09:37:56.238Z,20.96
2018-09-28T09:38:56.752Z,21.01
2018-09-28T09:39:58.150Z,21.05
2018-09-28T09:40:58.154Z,21.41
2018-09-28T09:41:59.260Z,21.63
2018-09-28T09:42:59.498Z,21.62
2018-09-28T09:44:00.299Z,21.69
2018-09-28T09:45:00.820Z,21.63
2018-09-28T09:46:02.448Z,21.69
2018-09-28T09:47:02.412Z,21.65
2018-09-28T09:48:03.264Z,21.62
2018-09-28T09:49:03.511Z,21.63
2018-09-28T09:50:04.854Z,21.7
2018-09-28T09:51:05.920Z,21.68
2018-09-28T09:52:05.894Z,21.58
2018-09-28T09:53:06.436Z,21.59
2018-09-28T09:54:06.782Z,21.92
2018-09-28T09:55:07.299Z,22.33
2018-09-28T09:56:07.943Z,22.52
2018-09-28T09:57:09.580Z,22.81
2018-09-28T09:58:10.537Z,22.96
2018-09-28T09:59:11.132Z,23.11
2018-09-28T10:00:11.368Z,23.45
2018-09-28T10:01:11.887Z,23.63
2018-09-28T10:02:12.504Z,23.55
2018-09-28T10:03:14.120Z,23.63
2018-09-28T10:04:14.192Z,23.63
2018-09-28T10:05:15.302Z,23.79
2018-09-28T10:06:15.377Z,23.67
2018-09-28T10:07:16.814Z,23.89
2018-09-28T10:08:16.914Z,23.91
2018-09-28T10:09:17.697Z,24.06
2018-09-28T10:10:18.560Z,24.06
2018-09-28T10:11:19.729Z,24
2018-09-28T10:12:20.905Z,24.26
2018-09-28T10:13:21.428Z,24.31
2018-09-28T10:14:22.781Z,24.47
2018-09-28T10:15:23.305Z,24.58
2018-09-28T10:16:23.825Z,24.93
2018-09-28T10:17:24.810Z,25.18
2018-09-28T10:18:25.334Z,25.49
2018-09-28T10:19:26.740Z,25.68
2018-09-28T10:20:27.195Z,25.96
2018-09-28T10:21:27.447Z,25.85
2018-09-28T10:22:28.807Z,25.54
2018-09-28T10:23:29.047Z,25.12
2018-09-28T10:24:30.394Z,24.97
2018-09-28T10:25:31.230Z,24.88
2018-09-28T10:26:32.308Z,24.71
2018-09-28T10:27:33.728Z,25.06
2018-09-28T10:28:34.387Z,24.81
2018-09-28T10:29:34.884Z,24.93
2018-09-28T10:30:35.401Z,24.92
2018-09-28T10:31:36.195Z,25.07
2018-09-28T10:32:36.995Z,25.16
2018-09-28T10:33:39.825Z,25.24
2018-09-28T10:34:39.937Z,25.16
2018-09-28T10:35:40.552Z,24.99
2018-09-28T10:36:41.915Z,24.96
2018-09-28T10:37:43.041Z,25.12
2018-09-28T10:38:43.321Z,25.3
2018-09-28T10:39:44.612Z,25.24
2018-09-28T10:40:46.244Z,24.97
2018-09-28T10:41:45.531Z,25.14
2018-09-28T10:42:50.425Z,24.97
2018-09-28T10:42:59.836Z,25.01
2018-09-28T10:43:59.113Z,24.99
2018-09-28T10:44:59.644Z,25.15
2018-09-28T10:46:00.807Z,24.96
2018-09-28T10:47:01.881Z,25.11
2018-09-28T10:48:03.071Z,24.85
2018-09-28T10:49:04.437Z,24.75
2018-09-28T10:50:04.237Z,24.58
2018-09-28T10:51:05.323Z,24.38
2018-09-28T10:52:06.309Z,24.32
2018-09-28T10:53:07.411Z,24.09
2018-09-28T10:54:07.870Z,24
2018-09-28T10:55:07.999Z,23.89
2018-09-28T10:56:09.076Z,23.77
2018-09-28T10:57:10.221Z,23.59
2018-09-28T10:58:11.842Z,23.51
2018-09-28T10:59:11.652Z,23.4
2018-09-28T11:00:12.489Z,23.55
2018-09-28T11:01:13.161Z,23.28
2018-09-28T11:02:13.955Z,23.36
2018-09-28T11:03:14.834Z,23.52
2018-09-28T11:04:15.927Z,23.62
2018-09-28T11:05:16.867Z,23.66
2018-09-28T11:06:17.685Z,23.76
2018-09-28T11:07:18.775Z,23.81
2018-09-28T11:08:19.388Z,23.77
2018-09-28T11:09:20.976Z,23.7
2018-09-28T11:10:22.338Z,23.67
2018-09-28T11:11:22.240Z,23.67
2018-09-28T11:12:22.537Z,23.63
2018-09-28T11:13:23.843Z,23.34
2018-09-28T11:14:24.932Z,23.07
2018-09-28T11:15:25.212Z,22.95
2018-09-28T11:16:26.358Z,22.81
2018-09-28T11:17:27.150Z,22.7
2018-09-28T11:18:27.506Z,22.73
2018-09-28T11:19:28.859Z,22.8
2018-09-28T11:20:29.496Z,22.89
2018-09-28T11:21:30.398Z,22.81
2018-09-28T11:22:31.128Z,22.95
2018-09-28T11:23:31.923Z,22.76
2018-09-28T11:24:32.831Z,22.73
2018-09-28T11:25:32.900Z,22.81
2018-09-28T11:26:33.695Z,22.81
2018-09-28T11:27:34.921Z,22.71
2018-09-28T11:28:35.019Z,22.71
2018-09-28T11:29:35.816Z,22.77
2018-09-28T11:30:36.174Z,22.83
2018-09-28T11:31:36.957Z,22.74
2018-09-28T11:32:38.581Z,22.81
2018-09-28T11:33:40.335Z,22.78
2018-09-28T11:34:40.406Z,22.74
2018-09-28T11:35:40.922Z,22.71
2018-09-28T11:36:41.443Z,22.73
2018-09-28T11:37:42.720Z,22.8
2018-09-28T11:38:43.837Z,22.88
2018-09-28T11:39:45.340Z,22.7
2018-09-28T11:40:45.309Z,22.59
2018-09-28T11:41:46.101Z,22.62
2018-09-28T11:42:47.176Z,22.53
2018-09-28T11:43:47.980Z,22.44
2018-09-28T11:44:48.666Z,22.34
2018-09-28T11:45:49.389Z,22.41
2018-09-28T11:46:50.403Z,22.37
2018-09-28T11:47:51.034Z,22.33
2018-09-28T11:48:51.572Z,22.37
2018-09-28T11:49:52.367Z,22.41
2018-09-28T11:50:53.160Z,22.36
2018-09-28T11:51:57.993Z,22.43
2018-09-28T11:52:08.830Z,22.36
2018-09-28T11:52:17.356Z,22.4
2018-09-28T11:53:18.181Z,22.44
2018-09-28T11:54:18.978Z,22.55
2018-09-28T11:55:20.327Z,22.53
2018-09-28T11:56:21.398Z,22.52
2018-09-28T11:57:22.669Z,22.68
2018-09-28T11:58:22.995Z,22.88
2018-09-28T11:59:24.508Z,22.93
2018-09-28T12:00:24.859Z,23.11
2018-09-28T12:01:25.941Z,23.32
2018-09-28T12:02:26.731Z,23.44
2018-09-28T12:03:29.458Z,23.54
2018-09-28T12:04:30.293Z,23.69
2018-09-28T12:05:30.938Z,23.76
2018-09-28T12:06:31.846Z,23.66
2018-09-28T12:07:32.562Z,23.66
2018-09-28T12:08:33.123Z,23.73
2018-09-28T12:09:33.764Z,23.67
2018-09-28T12:10:34.612Z,23.76
2018-09-28T12:11:35.413Z,23.88
2018-09-28T12:12:36.136Z,23.94
2018-09-28T12:13:37.264Z,23.89
2018-09-28T12:14:37.505Z,24.01
2018-09-28T12:15:39.599Z,23.59
2018-09-28T12:16:39.372Z,23.4
2018-09-28T12:17:40.167Z,23.36
2018-09-28T12:18:41.768Z,23.21
2018-09-28T12:19:41.506Z,23.23
2018-09-28T12:20:42.020Z,23.33
2018-09-28T12:21:43.327Z,23.32
2018-09-28T12:22:43.606Z,23.33
2018-09-28T12:23:44.849Z,23.44
2018-09-28T12:24:46.600Z,23.42
2018-09-28T12:25:46.699Z,23.42
2018-09-28T12:26:48.331Z,23.42
2018-09-28T12:27:49.073Z,23.42
2018-09-28T12:28:49.557Z,23.45
2018-09-28T12:29:50.633Z,23.37
2018-09-28T12:30:52.002Z,23.45
2018-09-28T12:31:52.157Z,23.23
2018-09-28T12:32:52.951Z,22.92
2018-09-28T12:33:53.621Z,22.99
2018-09-28T12:34:54.417Z,22.95
2018-09-28T12:35:54.820Z,22.92
2018-09-28T12:36:55.617Z,22.98
2018-09-28T12:37:56.968Z,23.14
2018-09-28T12:38:57.516Z,23.06
2018-09-28T12:40:00.161Z,23.01
2018-09-28T12:41:00.379Z,22.95
2018-09-28T12:42:00.898Z,23.06
2018-09-28T12:43:04.188Z,23.01
2018-09-28T12:44:05.189Z,22.88
2018-09-28T12:45:04.961Z,22.99
2018-09-28T12:46:05.648Z,23.07
2018-09-28T12:47:07.749Z,23.07
2018-09-28T12:48:08.314Z,23.14
2018-09-28T12:49:08.270Z,23.21
2018-09-28T12:50:09.402Z,23.33
2018-09-28T12:51:10.503Z,23.28
2018-09-28T12:52:10.298Z,23.36
2018-09-28T12:53:11.095Z,23.42
2018-09-28T12:54:12.520Z,23.23
2018-09-28T12:55:13.277Z,23.1
2018-09-28T12:56:14.949Z,23.2
2018-09-28T12:57:15.483Z,23.16
2018-09-28T12:58:16.637Z,23.13
2018-09-28T12:59:17.029Z,23.29
2018-09-28T13:00:18.629Z,23.21
2018-09-28T13:01:19.816Z,23.37